createdAt,value
2024-04-23T00:01:58.877Z,7.82
2024-04-23T00:04:26.953Z,6.85
2024-04-23T00:06:57.728Z,6.20
2024-04-23T00:09:25.977Z,5.13
2024-04-23T00:11:53.791Z,4.35
2024-04-23T00:14:21.706Z,4.03
2024-04-23T00:17:05.569Z,3.00
2024-04-23T00:19:33.608Z,2.20
2024-04-23T00:22:01.126Z,2.20
2024-04-23T00:24:28.545Z,2.28
2024-04-23T00:27:02.669Z,2.10
2024-04-23T00:29:30.698Z,1.90
2024-04-23T00:31:58.228Z,1.70
2024-04-23T00:34:25.968Z,1.50
2024-04-23T00:36:58.042Z,1.80
2024-04-23T00:39:27.387Z,1.58
2024-04-23T00:41:55.257Z,1.80
2024-04-23T00:44:23.523Z,1.75
2024-04-23T00:46:51.750Z,2.13
2024-04-23T00:49:19.603Z,1.50
2024-04-23T00:51:51.510Z,1.58
2024-04-23T00:54:20.642Z,1.60
2024-04-23T00:56:48.129Z,1.27
2024-04-23T00:59:15.885Z,1.30
2024-04-23T01:01:46.833Z,1.40
2024-04-23T01:04:15.345Z,1.30
2024-04-23T01:06:43.114Z,1.50
2024-04-23T01:09:11.026Z,1.30
2024-04-23T01:11:38.581Z,1.60
2024-04-23T01:14:06.707Z,1.45
2024-04-23T01:16:37.732Z,2.67
2024-04-23T01:19:07.603Z,4.00
2024-04-23T01:21:56.206Z,4.72
2024-04-23T01:24:29.743Z,4.00
2024-04-23T01:26:57.189Z,3.42
2024-04-23T01:29:24.800Z,3.17
2024-04-23T01:31:52.561Z,3.15
2024-04-23T01:34:20.459Z,2.85
2024-04-23T01:36:48.344Z,2.67
2024-04-23T01:39:16.519Z,2.15
2024-04-23T01:41:44.085Z,1.70
2024-04-23T01:44:11.515Z,1.60
2024-04-23T01:46:39.060Z,1.38
2024-04-23T01:49:09.294Z,1.20
2024-04-23T01:51:36.916Z,1.30
2024-04-23T01:54:04.381Z,1.50
2024-04-23T01:56:31.746Z,1.30
2024-04-23T01:58:59.270Z,1.88
2024-04-23T02:01:28.867Z,1.40
2024-04-23T02:03:56.268Z,1.13
2024-04-23T02:06:24.283Z,1.67
2024-04-23T02:08:52.946Z,1.80
2024-04-23T02:11:20.464Z,1.45
2024-04-23T02:13:48.097Z,1.92
2024-04-23T02:16:15.483Z,1.98
2024-04-23T02:18:43.068Z,1.77
2024-04-23T02:21:10.626Z,1.50
2024-04-23T02:23:37.989Z,1.50
2024-04-23T02:26:05.476Z,1.40
2024-04-23T02:28:33.864Z,1.50
2024-04-23T02:31:01.292Z,1.30
2024-04-23T02:33:28.846Z,2.30
2024-04-23T02:35:57.650Z,1.52
2024-04-23T02:38:26.653Z,1.60
2024-04-23T02:40:55.174Z,1.73
2024-04-23T02:43:22.625Z,1.58
2024-04-23T02:45:50.073Z,1.67
2024-04-23T02:48:18.667Z,1.40
2024-04-23T02:50:46.145Z,2.20
2024-04-23T02:53:13.600Z,1.60
2024-04-23T02:55:44.748Z,1.50
2024-04-23T02:58:12.188Z,1.45
2024-04-23T03:00:39.624Z,1.85
2024-04-23T03:03:07.262Z,1.50
2024-04-23T03:05:34.735Z,1.75
2024-04-23T03:08:02.529Z,1.50
2024-04-23T03:10:30.070Z,1.77
2024-04-23T03:12:57.727Z,1.63
2024-04-23T03:15:25.129Z,1.45
2024-04-23T03:17:52.584Z,1.80
2024-04-23T03:20:20.153Z,1.83
2024-04-23T03:22:47.570Z,1.95
2024-04-23T03:25:15.237Z,1.48
2024-04-23T03:27:42.828Z,1.70
2024-04-23T03:30:10.506Z,1.92
2024-04-23T03:32:38.093Z,2.13
2024-04-23T03:35:06.032Z,1.95
2024-04-23T03:37:33.493Z,1.75
2024-04-23T03:40:00.880Z,1.50
2024-04-23T03:42:28.366Z,1.73
2024-04-23T03:44:55.727Z,3.22
2024-04-23T03:47:23.105Z,4.95
2024-04-23T03:49:50.560Z,4.57
2024-04-23T03:52:19.581Z,4.88
2024-04-23T03:54:46.985Z,5.05
2024-04-23T03:57:14.372Z,4.50
2024-04-23T03:59:41.756Z,3.20
2024-04-23T04:02:27.971Z,2.60
2024-04-23T04:05:14.239Z,2.75
2024-04-23T04:07:41.779Z,2.58
2024-04-23T04:10:10.257Z,2.45
2024-04-23T04:12:37.671Z,2.28
2024-04-23T04:15:05.307Z,2.30
2024-04-23T04:17:32.832Z,2.05
2024-04-23T04:20:00.493Z,1.88
2024-04-23T04:22:28.012Z,2.25
2024-04-23T04:24:55.534Z,3.47
2024-04-23T04:27:23.224Z,3.35
2024-04-23T04:29:50.595Z,3.40
2024-04-23T04:32:18.078Z,3.10
2024-04-23T04:34:45.517Z,3.17
2024-04-23T04:37:12.907Z,2.33
2024-04-23T04:39:40.403Z,2.20
2024-04-23T04:42:07.812Z,2.20
2024-04-23T04:44:36.946Z,2.50
2024-04-23T04:47:05.766Z,2.55
2024-04-23T04:49:34.657Z,4.70
2024-04-23T04:52:02.046Z,3.00
2024-04-23T04:54:29.456Z,3.05
2024-04-23T04:56:56.830Z,2.63
2024-04-23T04:59:24.212Z,2.50
2024-04-23T05:01:51.748Z,3.40
2024-04-23T05:04:19.202Z,3.03
2024-04-23T05:06:46.652Z,2.85
2024-04-23T05:09:15.098Z,3.08
2024-04-23T05:11:44.301Z,3.80
2024-04-23T05:14:11.731Z,5.30
2024-04-23T05:16:41.097Z,6.32
2024-04-23T05:19:08.567Z,7.03
2024-04-23T05:21:36.147Z,6.05
2024-04-23T05:24:04.152Z,4.30
2024-04-23T05:26:31.576Z,3.28
2024-04-23T05:28:59.250Z,2.83
2024-04-23T05:31:46.151Z,2.70
2024-04-23T05:34:13.550Z,3.28
2024-04-23T05:36:40.947Z,3.03
2024-04-23T05:39:08.417Z,2.50
2024-04-23T05:41:35.837Z,3.45
2024-04-23T05:44:03.382Z,3.25
2024-04-23T05:46:30.933Z,3.10
2024-04-23T05:49:36.626Z,3.35
2024-04-23T05:52:41.706Z,3.13
2024-04-23T05:55:28.155Z,2.80
2024-04-23T05:57:56.157Z,3.50
2024-04-23T06:00:23.954Z,2.92
2024-04-23T06:02:51.490Z,3.10
2024-04-23T06:05:19.299Z,3.28
2024-04-23T06:07:46.889Z,2.95
2024-04-23T06:10:14.434Z,3.10
2024-04-23T06:12:41.875Z,3.65
2024-04-23T06:15:10.345Z,3.53
2024-04-23T06:17:42.237Z,3.60
2024-04-23T06:20:15.194Z,3.40
2024-04-23T06:22:49.744Z,4.30
2024-04-23T06:25:17.659Z,3.85
2024-04-23T06:27:45.515Z,3.60
2024-04-23T06:30:16.545Z,4.05
2024-04-23T06:32:44.916Z,5.38
2024-04-23T06:35:14.566Z,5.55
2024-04-23T06:37:42.112Z,5.40
2024-04-23T06:40:10.700Z,6.78
2024-04-23T06:42:39.773Z,8.93
2024-04-23T06:45:07.704Z,7.70
2024-04-23T06:47:35.749Z,7.50
2024-04-23T06:50:04.200Z,6.00
2024-04-23T06:52:31.839Z,5.55
2024-04-23T06:55:02.353Z,5.78
2024-04-23T06:57:29.972Z,5.70
2024-04-23T06:59:57.572Z,8.88
2024-04-23T07:02:25.904Z,8.00
2024-04-23T07:04:54.020Z,7.57
2024-04-23T07:07:21.590Z,6.88
2024-04-23T07:09:49.578Z,7.22
2024-04-23T07:12:17.115Z,8.52
2024-04-23T07:14:44.940Z,6.50
2024-04-23T07:17:12.630Z,7.15
2024-04-23T07:19:40.374Z,6.65
2024-04-23T07:22:08.284Z,7.03
2024-04-23T07:24:35.670Z,6.38
2024-04-23T07:27:03.495Z,8.18
2024-04-23T07:29:32.833Z,8.40
2024-04-23T07:32:02.199Z,7.80
2024-04-23T07:34:29.820Z,7.18
2024-04-23T07:36:57.298Z,6.95
2024-04-23T07:39:24.785Z,7.70
2024-04-23T07:41:52.259Z,7.70
2024-04-23T07:44:20.112Z,8.02
2024-04-23T07:46:47.573Z,7.20
2024-04-23T07:49:15.167Z,6.55
2024-04-23T07:51:42.693Z,6.78
2024-04-23T07:54:10.280Z,6.97
2024-04-23T07:56:37.710Z,7.25
2024-04-23T07:59:05.330Z,6.65
2024-04-23T08:01:32.876Z,7.28
2024-04-23T08:04:02.829Z,6.53
2024-04-23T08:06:30.410Z,6.57
2024-04-23T08:08:57.897Z,7.40
2024-04-23T08:11:25.536Z,7.15
2024-04-23T08:13:55.026Z,6.25
2024-04-23T08:16:22.443Z,6.57
2024-04-23T08:18:50.034Z,6.45
2024-04-23T08:21:17.579Z,6.35
2024-04-23T08:23:45.862Z,6.45
2024-04-23T08:26:17.710Z,5.78
2024-04-23T08:28:47.837Z,4.80
2024-04-23T08:31:15.406Z,4.50
2024-04-23T08:33:42.953Z,4.53
2024-04-23T08:36:11.501Z,5.07
2024-04-23T08:38:39.592Z,4.88
2024-04-23T08:41:07.048Z,5.07
2024-04-23T08:44:03.974Z,5.00
2024-04-23T08:46:32.217Z,5.28
2024-04-23T08:48:59.930Z,5.00
2024-04-23T08:51:28.174Z,9.00
2024-04-23T08:53:55.822Z,4.38
2024-04-23T08:56:24.308Z,4.25
2024-04-23T08:58:53.180Z,4.25
2024-04-23T09:01:31.895Z,4.60
2024-04-23T09:04:00.619Z,4.30
2024-04-23T09:06:29.321Z,4.10
2024-04-23T09:09:01.542Z,4.20
2024-04-23T09:11:29.655Z,4.07
2024-04-23T09:13:57.515Z,4.53
2024-04-23T09:16:25.196Z,4.65
2024-04-23T09:18:54.957Z,4.22
2024-04-23T09:21:24.491Z,4.53
2024-04-23T09:23:54.012Z,4.10
2024-04-23T09:26:27.491Z,4.10
2024-04-23T09:28:55.011Z,4.47
2024-04-23T09:31:22.840Z,4.40
2024-04-23T09:33:53.972Z,4.32
2024-04-23T09:36:25.627Z,4.22
2024-04-23T09:38:54.595Z,3.20
2024-04-23T09:41:22.540Z,3.90
2024-04-23T09:43:57.445Z,3.65
2024-04-23T09:46:27.605Z,3.60
2024-04-23T09:48:55.444Z,3.05
2024-04-23T09:51:23.120Z,3.80
2024-04-23T09:53:50.532Z,3.60
2024-04-23T09:56:21.694Z,3.60
2024-04-23T09:58:49.704Z,4.00
2024-04-23T10:01:22.663Z,3.10
2024-04-23T10:03:54.338Z,3.08
2024-04-23T10:06:28.013Z,2.67
2024-04-23T10:09:07.107Z,3.33
2024-04-23T10:11:41.900Z,3.20
2024-04-23T10:14:35.591Z,3.67
2024-04-23T10:17:05.228Z,3.38
2024-04-23T10:19:34.839Z,3.22
2024-04-23T10:22:04.209Z,3.30
2024-04-23T10:24:31.883Z,3.45
2024-04-23T10:26:59.885Z,3.17
2024-04-23T10:29:29.315Z,3.03
2024-04-23T10:31:56.857Z,3.38
2024-04-23T10:34:24.705Z,3.25
2024-04-23T10:36:52.645Z,3.13
2024-04-23T10:39:23.649Z,3.60
2024-04-23T10:41:52.753Z,3.55
2024-04-23T10:44:23.013Z,3.33
2024-04-23T10:46:50.740Z,2.90
2024-04-23T10:49:22.490Z,3.10
2024-04-23T10:51:51.417Z,3.03
2024-04-23T10:54:23.168Z,3.45
2024-04-23T10:57:11.009Z,3.33
2024-04-23T10:59:39.710Z,3.33
2024-04-23T11:02:12.362Z,3.10
2024-04-23T11:04:47.108Z,3.47
2024-04-23T11:07:26.348Z,3.70
2024-04-23T11:10:01.891Z,3.15
2024-04-23T11:12:31.472Z,3.60
2024-04-23T11:14:59.809Z,3.30
2024-04-23T11:17:27.457Z,3.15
2024-04-23T11:19:58.138Z,3.38
2024-04-23T11:22:54.167Z,2.92
2024-04-23T11:25:34.598Z,3.28
2024-04-23T11:28:03.133Z,2.92
2024-04-23T11:30:30.619Z,2.63
2024-04-23T11:32:58.744Z,2.92
2024-04-23T11:35:26.659Z,3.30
2024-04-23T11:38:00.013Z,3.03
2024-04-23T11:40:27.659Z,3.00
2024-04-23T11:42:55.147Z,2.60
2024-04-23T11:45:22.683Z,3.10
2024-04-23T11:47:55.546Z,3.08
2024-04-23T11:50:25.438Z,2.67
2024-04-23T11:52:53.052Z,2.40
2024-04-23T11:55:20.702Z,2.70
2024-04-23T11:57:49.123Z,2.50
2024-04-23T12:00:20.864Z,1.77
2024-04-23T12:02:49.217Z,2.10
2024-04-23T12:05:17.676Z,1.80
2024-04-23T12:07:45.510Z,1.95
2024-04-23T12:10:31.801Z,1.80
2024-04-23T12:12:59.697Z,1.98
2024-04-23T12:15:27.276Z,1.90
2024-04-23T12:17:55.354Z,1.48
2024-04-23T12:20:22.952Z,1.30
2024-04-23T12:22:52.603Z,1.40
2024-04-23T12:25:20.220Z,1.30
2024-04-23T12:27:48.376Z,1.08
2024-04-23T12:30:20.088Z,1.10
2024-04-23T12:32:51.567Z,1.10
2024-04-23T12:35:22.659Z,1.30
2024-04-23T12:37:57.595Z,1.67
2024-04-23T12:40:25.058Z,2.28
2024-04-23T12:42:52.605Z,1.70
2024-04-23T12:45:20.165Z,1.30
2024-04-23T12:47:47.720Z,1.50
2024-04-23T12:50:15.622Z,3.17
2024-04-23T12:52:43.406Z,1.95
2024-04-23T12:55:10.815Z,1.80
2024-04-23T12:57:38.366Z,2.25
2024-04-23T13:00:07.782Z,1.90
2024-04-23T13:02:38.025Z,2.90
2024-04-23T13:05:07.636Z,2.10
2024-04-23T13:07:35.126Z,1.92
2024-04-23T13:10:02.835Z,2.47
2024-04-23T13:12:30.289Z,1.83
2024-04-23T13:14:57.808Z,2.40
2024-04-23T13:17:26.156Z,2.40
2024-04-23T13:19:59.795Z,2.05
2024-04-23T13:22:28.391Z,1.98
2024-04-23T13:24:56.208Z,2.25
2024-04-23T13:27:23.767Z,1.88
2024-04-23T13:29:52.363Z,2.00
2024-04-23T13:32:20.073Z,2.28
2024-04-23T13:34:47.654Z,2.38
2024-04-23T13:37:15.484Z,2.40
2024-04-23T13:39:42.978Z,2.35
2024-04-23T13:42:12.192Z,2.67
2024-04-23T13:44:39.816Z,2.45
2024-04-23T13:47:08.340Z,2.60
2024-04-23T13:49:39.139Z,2.80
2024-04-23T13:52:06.706Z,2.42
2024-04-23T13:54:34.179Z,2.58
2024-04-23T13:57:01.806Z,2.45
2024-04-23T13:59:29.454Z,2.65
2024-04-23T14:01:57.173Z,2.53
2024-04-23T14:04:24.958Z,2.42
2024-04-23T14:06:54.797Z,2.20
2024-04-23T14:09:22.447Z,2.28
2024-04-23T14:11:50.312Z,2.22
2024-04-23T14:14:17.943Z,2.17
2024-04-23T14:16:45.502Z,2.10
2024-04-23T14:19:12.929Z,2.40
2024-04-23T14:21:42.110Z,2.40
2024-04-23T14:24:09.694Z,2.28
2024-04-23T14:26:37.346Z,2.40
2024-04-23T14:29:05.049Z,2.10
2024-04-23T14:31:33.448Z,2.30
2024-04-23T14:34:03.755Z,2.00
2024-04-23T14:36:32.632Z,2.22
2024-04-23T14:39:00.227Z,1.90
2024-04-23T14:41:27.624Z,2.70
2024-04-23T14:43:55.151Z,3.90
2024-04-23T14:46:22.886Z,3.90
2024-04-23T14:48:50.443Z,1.95
2024-04-23T14:51:18.259Z,2.10
2024-04-23T14:53:45.803Z,3.70
2024-04-23T14:56:16.862Z,2.60
2024-04-23T14:58:44.641Z,2.10
2024-04-23T15:01:13.356Z,3.88
2024-04-23T15:03:41.355Z,2.38
2024-04-23T15:06:14.281Z,2.30
2024-04-23T15:08:42.325Z,2.08
2024-04-23T15:11:11.555Z,2.60
2024-04-23T15:13:39.306Z,2.15
2024-04-23T15:16:08.310Z,2.38
2024-04-23T15:18:41.108Z,2.28
2024-04-23T15:21:10.306Z,2.50
2024-04-23T15:23:38.011Z,2.28
2024-04-23T15:26:06.100Z,2.17
2024-04-23T15:28:35.146Z,2.45
2024-04-23T15:31:07.090Z,2.78
2024-04-23T15:33:41.134Z,2.08
2024-04-23T15:36:19.805Z,1.92
2024-04-23T15:38:57.256Z,2.75
2024-04-23T15:41:25.104Z,2.75
2024-04-23T15:43:52.823Z,2.97
2024-04-23T15:46:20.436Z,2.88
2024-04-23T15:48:48.075Z,2.75
2024-04-23T15:51:15.710Z,2.83
2024-04-23T15:53:43.164Z,2.80
2024-04-23T15:56:12.928Z,2.42
2024-04-23T15:58:40.860Z,3.20
2024-04-23T16:01:11.799Z,3.00
2024-04-23T16:03:42.177Z,2.80
2024-04-23T16:06:16.226Z,3.30
2024-04-23T16:08:44.209Z,2.80
2024-04-23T16:11:11.817Z,2.72
2024-04-23T16:13:39.779Z,3.40
2024-04-23T16:16:08.166Z,3.85
2024-04-23T16:18:38.912Z,3.50
2024-04-23T16:21:12.385Z,3.55
2024-04-23T16:23:40.694Z,2.10
2024-04-23T16:26:10.725Z,2.20
2024-04-23T16:28:38.579Z,1.95
2024-04-23T16:31:07.795Z,2.28
2024-04-23T16:33:39.624Z,2.53
2024-04-23T16:36:08.639Z,2.28
2024-04-23T16:38:39.982Z,2.78
2024-04-23T16:41:11.201Z,2.50
2024-04-23T16:43:38.858Z,2.55
2024-04-23T16:46:06.860Z,2.55
2024-04-23T16:48:35.988Z,2.58
2024-04-23T16:51:05.550Z,2.63
2024-04-23T16:53:34.113Z,2.50
2024-04-23T16:56:01.628Z,2.72
2024-04-23T16:58:29.046Z,2.63
2024-04-23T17:00:56.576Z,2.70
2024-04-23T17:03:24.364Z,2.25
2024-04-23T17:05:54.508Z,2.42
2024-04-23T17:08:22.102Z,2.65
2024-04-23T17:10:50.722Z,2.50
2024-04-23T17:13:21.765Z,2.45
2024-04-23T17:15:49.240Z,2.50
2024-04-23T17:20:46.264Z,2.40
2024-04-23T17:23:14.088Z,2.30
2024-04-23T17:25:41.617Z,2.40
2024-04-23T17:28:09.129Z,2.30
2024-04-23T17:30:36.542Z,1.85
2024-04-23T17:33:04.328Z,2.13
2024-04-23T17:35:31.921Z,2.30
2024-04-23T17:37:59.406Z,2.10
2024-04-23T17:40:26.890Z,1.70
2024-04-23T17:42:54.436Z,3.17
2024-04-23T17:45:22.432Z,1.63
2024-04-23T17:47:50.288Z,1.60
2024-04-23T17:50:18.092Z,1.55
2024-04-23T17:52:47.527Z,1.75
2024-04-23T17:55:16.053Z,1.40
2024-04-23T17:57:43.597Z,1.40
2024-04-23T18:00:11.495Z,1.58
2024-04-23T18:02:39.124Z,1.95
2024-04-23T18:05:08.106Z,2.28
2024-04-23T18:07:35.686Z,2.40
2024-04-23T18:10:03.228Z,2.15
2024-04-23T18:12:31.086Z,2.35
2024-04-23T18:14:58.669Z,2.28
2024-04-23T18:17:26.361Z,2.13
2024-04-23T18:19:53.935Z,2.50
2024-04-23T18:22:22.113Z,2.25
2024-04-23T18:24:49.538Z,2.35
2024-04-23T18:27:19.018Z,2.65
2024-04-23T18:29:46.585Z,2.58
2024-04-23T18:32:14.296Z,2.60
2024-04-23T18:34:41.972Z,3.00
2024-04-23T18:37:09.723Z,2.63
2024-04-23T18:39:37.297Z,2.75
2024-04-23T18:42:04.824Z,3.53
2024-04-23T18:44:33.378Z,3.38
2024-04-23T18:47:01.066Z,2.75
2024-04-23T18:49:28.712Z,3.03
2024-04-23T18:51:56.228Z,2.95
2024-04-23T18:54:23.951Z,3.20
2024-04-23T18:56:53.794Z,2.80
2024-04-23T18:59:21.281Z,3.03
2024-04-23T19:01:48.884Z,3.08
2024-04-23T19:04:16.555Z,3.17
2024-04-23T19:06:43.997Z,3.00
2024-04-23T19:09:11.483Z,3.00
2024-04-23T19:11:38.980Z,2.90
2024-04-23T19:14:14.710Z,3.33
2024-04-23T19:16:45.540Z,3.10
2024-04-23T19:19:13.236Z,3.35
2024-04-23T19:21:40.922Z,3.53
2024-04-23T19:24:09.073Z,3.25
2024-04-23T19:26:36.775Z,3.15
2024-04-23T19:29:04.961Z,3.25
2024-04-23T19:31:32.549Z,3.30
2024-04-23T19:34:02.548Z,3.40
2024-04-23T19:36:30.010Z,3.67
2024-04-23T19:38:57.622Z,3.33
2024-04-23T19:41:25.317Z,2.95
2024-04-23T19:43:54.345Z,3.22
2024-04-23T19:46:25.649Z,3.28
2024-04-23T19:48:56.741Z,3.47
2024-04-23T19:51:25.133Z,3.10
2024-04-23T19:53:52.689Z,2.90
2024-04-23T19:56:28.144Z,3.00
2024-04-23T19:58:59.922Z,2.80
2024-04-23T20:01:28.142Z,2.55
2024-04-23T20:03:56.552Z,3.00
2024-04-23T20:06:24.001Z,2.80
2024-04-23T20:08:51.702Z,2.80
2024-04-23T20:11:20.404Z,3.60
2024-04-23T20:13:47.931Z,2.85
2024-04-23T20:16:15.340Z,3.95
2024-04-23T20:18:43.012Z,2.95
2024-04-23T20:21:14.173Z,3.38
2024-04-23T20:23:42.083Z,3.35
2024-04-23T20:26:16.042Z,3.00
2024-04-23T20:28:45.552Z,3.78
2024-04-23T20:31:13.884Z,14.57
2024-04-23T20:33:42.553Z,6.95
2024-04-23T20:36:14.087Z,6.10
2024-04-23T20:38:42.046Z,4.82
2024-04-23T20:41:10.771Z,3.15
2024-04-23T20:43:38.567Z,3.28
2024-04-23T20:46:07.769Z,3.40
2024-04-23T20:48:36.275Z,3.22
2024-04-23T20:51:04.334Z,9.57
2024-04-23T20:53:31.891Z,2.90
2024-04-23T20:56:06.205Z,2.63
2024-04-23T20:58:34.001Z,2.88
2024-04-23T21:01:11.958Z,1.90
2024-04-23T21:03:40.158Z,2.63
2024-04-23T21:06:14.371Z,1.80
2024-04-23T21:08:42.725Z,1.52
2024-04-23T21:11:17.800Z,1.60
2024-04-23T21:13:46.116Z,1.42
2024-04-23T21:16:16.551Z,1.80
2024-04-23T21:18:45.614Z,1.63
2024-04-23T21:21:14.432Z,1.45
2024-04-23T21:23:42.262Z,1.42
2024-04-23T21:26:10.963Z,2.13
2024-04-23T21:28:38.504Z,1.60
2024-04-23T21:31:06.079Z,1.60
2024-04-23T21:33:33.951Z,1.85
2024-04-23T21:36:06.043Z,1.80
2024-04-23T21:38:34.694Z,1.40
2024-04-23T21:41:09.879Z,1.60
2024-04-23T21:43:38.767Z,1.88
2024-04-23T21:46:10.336Z,1.60
2024-04-23T21:48:38.168Z,1.67
2024-04-23T21:51:13.120Z,1.88
2024-04-23T21:53:41.070Z,1.77
2024-04-23T21:56:09.547Z,1.65
2024-04-23T21:58:37.884Z,1.60
2024-04-23T22:01:16.542Z,1.30
2024-04-23T22:03:45.256Z,1.17
2024-04-23T22:06:12.958Z,1.23
2024-04-23T22:08:40.676Z,1.42
2024-04-23T22:11:08.517Z,1.00
2024-04-23T22:13:36.022Z,1.33
2024-04-23T22:16:03.605Z,1.30
2024-04-23T22:18:31.150Z,1.38
2024-04-23T22:20:58.634Z,1.38
2024-04-23T22:23:26.191Z,1.27
2024-04-23T22:25:53.690Z,1.25
2024-04-23T22:28:21.243Z,1.50
2024-04-23T22:30:48.789Z,1.60
2024-04-23T22:33:16.447Z,1.42
2024-04-23T22:35:44.037Z,1.33
2024-04-23T22:38:11.751Z,1.88
2024-04-23T22:40:39.321Z,1.20
2024-04-23T22:43:06.795Z,1.40
2024-04-23T22:45:34.188Z,1.15
2024-04-23T22:48:01.799Z,1.10
2024-04-23T22:50:29.301Z,1.00
2024-04-23T22:52:56.801Z,1.20
2024-04-23T22:55:24.492Z,1.35
2024-04-23T22:57:51.930Z,1.08
2024-04-23T23:00:19.560Z,0.90
2024-04-23T23:02:47.074Z,1.08
2024-04-23T23:05:14.878Z,0.85
2024-04-23T23:07:42.667Z,0.85
2024-04-23T23:10:10.182Z,1.20
2024-04-23T23:12:37.736Z,0.85
2024-04-23T23:15:05.482Z,1.17
2024-04-23T23:17:32.995Z,1.10
2024-04-23T23:20:00.573Z,1.17
2024-04-23T23:22:28.097Z,0.85
2024-04-23T23:24:55.536Z,1.02
2024-04-23T23:27:23.051Z,0.93
2024-04-23T23:29:50.525Z,1.20
2024-04-23T23:32:18.144Z,1.00
2024-04-23T23:34:45.686Z,1.13
2024-04-23T23:37:13.184Z,1.00
2024-04-23T23:39:40.626Z,0.90
2024-04-23T23:42:08.417Z,1.08
2024-04-23T23:44:35.921Z,1.15
2024-04-23T23:47:03.541Z,1.10
2024-04-23T23:49:31.261Z,1.10
2024-04-23T23:51:58.970Z,1.10
2024-04-23T23:54:26.404Z,0.93
2024-04-23T23:56:54.651Z,0.80
2024-04-23T23:59:22.256Z,1.05
